createdAt,value
2022-07-28T00:01:12.655Z,95483.84
2022-07-28T00:03:41.663Z,95482.72
2022-07-28T00:06:09.691Z,95488.50
2022-07-28T00:08:39.126Z,95485.50
2022-07-28T00:11:08.276Z,95486.06
2022-07-28T00:13:36.814Z,95482.94
2022-07-28T00:16:05.204Z,95477.00
2022-07-28T00:18:32.861Z,95486.06
2022-07-28T00:21:01.514Z,95479.09
2022-07-28T00:23:38.991Z,95475.38
2022-07-28T00:26:11.822Z,95470.03
2022-07-28T00:28:40.007Z,95477.47
2022-07-28T00:31:08.800Z,95467.25
2022-07-28T00:33:40.403Z,95467.25
2022-07-28T00:36:10.262Z,95472.34
2022-07-28T00:38:40.808Z,95463.53
2022-07-28T00:41:13.204Z,95458.31
2022-07-28T00:43:43.199Z,95454.72
2022-07-28T00:46:11.185Z,95461.91
2022-07-28T00:48:40.206Z,95454.72
2022-07-28T00:51:09.534Z,95458.41
2022-07-28T00:53:38.134Z,95451.44
2022-07-28T00:56:07.244Z,95452.75
2022-07-28T00:58:38.496Z,95454.59
2022-07-28T01:01:07.129Z,95444.41
2022-07-28T01:03:37.730Z,95440.56
2022-07-28T01:06:15.231Z,95442.66
2022-07-28T01:08:57.301Z,95448.47
2022-07-28T01:11:32.197Z,95428.16
2022-07-28T01:14:18.910Z,95436.16
2022-07-28T01:16:53.575Z,95430.84
2022-07-28T01:19:37.182Z,95431.28
2022-07-28T01:22:06.892Z,95424.31
2022-07-28T01:24:45.145Z,95425.69
2022-07-28T01:27:25.123Z,95426.75
2022-07-28T01:30:06.200Z,95421.06
2022-07-28T01:32:40.498Z,95416.22
2022-07-28T01:35:13.691Z,95417.03
2022-07-28T01:37:45.546Z,95406.00
2022-07-28T01:40:16.357Z,95411.66
2022-07-28T01:42:48.280Z,95410.75
2022-07-28T01:45:17.123Z,95413.66
2022-07-28T01:47:48.186Z,95409.34
2022-07-28T01:50:19.011Z,95410.84
2022-07-28T01:52:48.821Z,95415.38
2022-07-28T01:55:20.172Z,95417.00
2022-07-28T01:57:50.576Z,95407.13
2022-07-28T02:00:19.274Z,95405.53
2022-07-28T02:02:50.855Z,95403.53
2022-07-28T02:05:21.783Z,95406.44
2022-07-28T02:07:52.599Z,95398.91
2022-07-28T02:10:21.627Z,95415.94
2022-07-28T02:12:51.905Z,95398.75
2022-07-28T02:15:21.970Z,95406.19
2022-07-28T02:17:54.392Z,95405.03
2022-07-28T02:20:23.655Z,95405.94
2022-07-28T02:22:53.437Z,95401.56
2022-07-28T02:25:21.651Z,95402.22
2022-07-28T02:27:53.357Z,95395.75
2022-07-28T02:30:29.345Z,95401.50
2022-07-28T02:33:04.861Z,95399.88
2022-07-28T02:35:40.978Z,95397.91
2022-07-28T02:38:14.089Z,95392.66
2022-07-28T02:40:45.251Z,95394.75
2022-07-28T02:43:18.231Z,95393.56
2022-07-28T02:45:48.303Z,95388.22
2022-07-28T02:48:22.628Z,95385.78
2022-07-28T02:50:51.473Z,95393.44
2022-07-28T02:53:20.681Z,95396.56
2022-07-28T02:55:49.849Z,95396.34
2022-07-28T02:58:22.300Z,95394.47
2022-07-28T03:00:51.739Z,95394.47
2022-07-28T03:03:21.618Z,95398.75
2022-07-28T03:05:50.054Z,95400.25
2022-07-28T03:08:18.064Z,95394.72
2022-07-28T03:10:45.716Z,95398.03
2022-07-28T03:13:13.813Z,95400.69
2022-07-28T03:15:41.445Z,95404.06
2022-07-28T03:18:09.121Z,95401.81
2022-07-28T03:20:38.123Z,95401.25
2022-07-28T03:23:08.003Z,95403.09
2022-07-28T03:25:42.001Z,95411.31
2022-07-28T03:28:15.587Z,95406.66
2022-07-28T03:30:49.078Z,95401.94
2022-07-28T03:33:17.775Z,95405.50
2022-07-28T03:35:51.802Z,95406.53
2022-07-28T03:38:22.951Z,95405.94
2022-07-28T03:40:52.575Z,95402.25
2022-07-28T03:43:23.926Z,95405.94
2022-07-28T03:45:51.658Z,95400.81
2022-07-28T03:48:22.025Z,95398.97
2022-07-28T03:50:51.168Z,95400.63
2022-07-28T03:53:23.187Z,95398.53
2022-07-28T03:55:51.693Z,95401.44
2022-07-28T03:58:19.930Z,95395.31
2022-07-28T04:00:48.323Z,95398.97
2022-07-28T04:03:35.106Z,95398.53
2022-07-28T04:06:06.108Z,95394.84
2022-07-28T04:08:34.285Z,95400.97
2022-07-28T04:11:02.007Z,95405.03
2022-07-28T04:13:31.935Z,95400.09
2022-07-28T04:15:59.941Z,95406.81
2022-07-28T04:18:27.623Z,95409.00
2022-07-28T04:20:55.872Z,95411.25
2022-07-28T04:23:25.412Z,95415.06
2022-07-28T04:25:53.635Z,95412.91
2022-07-28T04:28:21.293Z,95411.19
2022-07-28T04:30:49.546Z,95409.69
2022-07-28T04:33:18.562Z,95421.28
2022-07-28T04:35:47.332Z,95424.09
2022-07-28T04:38:17.137Z,95424.00
2022-07-28T04:40:46.651Z,95426.34
2022-07-28T04:43:14.341Z,95425.66
2022-07-28T04:45:53.600Z,95433.22
2022-07-28T04:48:23.863Z,95426.72
2022-07-28T04:50:52.750Z,95438.09
2022-07-28T04:53:20.932Z,95432.41
2022-07-28T04:55:51.871Z,95428.59
2022-07-28T04:58:22.644Z,95426.41
2022-07-28T05:00:51.336Z,95429.53
2022-07-28T05:03:19.683Z,95421.19
2022-07-28T05:05:53.982Z,95425.38
2022-07-28T05:08:26.043Z,95418.84
2022-07-28T05:10:57.033Z,95427.34
2022-07-28T05:13:28.885Z,95428.84
2022-07-28T05:16:01.370Z,95420.03
2022-07-28T05:18:29.042Z,95421.78
2022-07-28T05:20:56.741Z,95431.72
2022-07-28T05:23:24.388Z,95424.97
2022-07-28T05:25:52.430Z,95424.00
2022-07-28T05:28:21.491Z,95422.25
2022-07-28T05:30:49.604Z,95418.88
2022-07-28T05:33:17.319Z,95413.88
2022-07-28T05:35:51.899Z,95417.44
2022-07-28T05:38:19.546Z,95413.81
2022-07-28T05:40:48.638Z,95414.25
2022-07-28T05:43:16.513Z,95414.56
2022-07-28T05:45:46.643Z,95418.03
2022-07-28T05:48:14.559Z,95419.34
2022-07-28T05:50:42.527Z,95428.44
2022-07-28T05:53:10.554Z,95423.59
2022-07-28T05:56:00.560Z,95425.38
2022-07-28T05:58:26.770Z,95427.66
2022-07-28T06:00:59.605Z,95419.88
2022-07-28T06:03:27.670Z,95429.34
2022-07-28T06:06:00.744Z,95426.09
2022-07-28T06:08:43.191Z,95431.88
2022-07-28T06:11:11.821Z,95431.72
2022-07-28T06:13:47.101Z,95434.44
2022-07-28T06:16:16.942Z,95426.91
2022-07-28T06:18:44.840Z,95429.34
2022-07-28T06:21:13.408Z,95419.03
2022-07-28T06:23:42.004Z,95422.38
2022-07-28T06:26:09.678Z,95422.25
2022-07-28T06:28:37.702Z,95424.94
2022-07-28T06:31:05.391Z,95432.56
2022-07-28T06:33:34.811Z,95427.28
2022-07-28T06:36:02.481Z,95426.88
2022-07-28T06:38:31.335Z,95420.53
2022-07-28T06:41:00.117Z,95429.19
2022-07-28T06:43:27.770Z,95424.31
2022-07-28T06:45:55.526Z,95429.84
2022-07-28T06:48:25.832Z,95418.19
2022-07-28T06:50:59.599Z,95422.56
2022-07-28T06:53:28.095Z,95429.69
2022-07-28T06:56:01.841Z,95430.84
2022-07-28T06:58:29.466Z,95431.22
2022-07-28T07:00:57.331Z,95423.41
2022-07-28T07:03:25.015Z,95423.97
2022-07-28T07:05:53.318Z,95421.09
2022-07-28T07:08:23.289Z,95433.91
2022-07-28T07:10:50.945Z,95420.25
2022-07-28T07:13:19.385Z,95419.09
2022-07-28T07:15:47.028Z,95412.66
2022-07-28T07:18:15.408Z,95407.13
2022-07-28T07:20:43.067Z,95407.97
2022-07-28T07:23:11.022Z,95410.22
2022-07-28T07:25:41.190Z,95410.00
2022-07-28T07:28:09.202Z,95406.00
2022-07-28T07:30:36.830Z,95417.25
2022-07-28T07:33:08.034Z,95408.44
2022-07-28T07:35:38.803Z,95409.03
2022-07-28T07:38:07.252Z,95397.50
2022-07-28T07:40:35.078Z,95397.00
2022-07-28T07:43:04.618Z,95403.38
2022-07-28T07:45:34.247Z,95402.06
2022-07-28T07:48:02.935Z,95405.09
2022-07-28T07:50:31.001Z,95399.19
2022-07-28T07:52:59.101Z,95401.06
2022-07-28T07:55:26.739Z,95400.75
2022-07-28T07:58:01.966Z,95396.44
2022-07-28T08:00:31.263Z,95398.06
2022-07-28T08:03:00.624Z,95395.00
2022-07-28T08:05:35.920Z,95398.47
2022-07-28T08:08:05.737Z,95405.97
2022-07-28T08:10:33.701Z,95403.03
2022-07-28T08:13:01.900Z,95398.97
2022-07-28T08:15:31.335Z,95405.88
2022-07-28T08:17:59.019Z,95401.41
2022-07-28T08:20:27.114Z,95400.78
2022-07-28T08:22:56.627Z,95396.69
2022-07-28T08:25:25.275Z,95394.38
2022-07-28T08:27:53.254Z,95396.66
2022-07-28T08:30:22.962Z,95393.09
2022-07-28T08:32:56.366Z,95390.31
2022-07-28T08:35:34.544Z,95392.97
2022-07-28T08:38:04.243Z,95391.88
2022-07-28T08:40:33.199Z,95391.72
2022-07-28T08:43:08.019Z,95385.41
2022-07-28T08:45:37.560Z,95388.69
2022-07-28T08:48:09.859Z,95384.22
2022-07-28T08:50:39.106Z,95385.63
2022-07-28T08:53:08.097Z,95391.41
2022-07-28T08:55:37.135Z,95388.78
2022-07-28T08:58:05.547Z,95383.88
2022-07-28T09:00:33.329Z,95376.75
2022-07-28T09:03:03.246Z,95382.00
2022-07-28T09:05:33.359Z,95377.19
2022-07-28T09:08:02.257Z,95375.34
2022-07-28T09:10:30.209Z,95379.97
2022-07-28T09:12:58.184Z,95381.38
2022-07-28T09:15:25.951Z,95386.22
2022-07-28T09:17:53.580Z,95386.00
2022-07-28T09:20:21.632Z,95381.81
2022-07-28T09:22:58.189Z,95382.50
2022-07-28T09:25:26.910Z,95382.34
2022-07-28T09:27:55.213Z,95373.13
2022-07-28T09:30:31.429Z,95368.06
2022-07-28T09:33:43.046Z,95375.25
2022-07-28T09:36:15.193Z,95375.44
2022-07-28T09:38:44.900Z,95364.78
2022-07-28T09:41:12.910Z,95365.00
2022-07-28T09:43:42.780Z,95366.53
2022-07-28T09:46:11.654Z,95365.13
2022-07-28T09:48:52.120Z,95358.63
2022-07-28T09:51:21.445Z,95358.31
2022-07-28T09:53:52.115Z,95366.78
2022-07-28T09:56:19.963Z,95357.78
2022-07-28T09:58:55.973Z,95352.75
2022-07-28T10:01:25.286Z,95355.84
2022-07-28T10:03:57.922Z,95353.63
2022-07-28T10:06:31.562Z,95365.56
2022-07-28T10:09:02.169Z,95347.94
2022-07-28T10:11:30.821Z,95349.00
2022-07-28T10:14:02.704Z,95349.28
2022-07-28T10:16:32.383Z,95348.06
2022-07-28T10:19:02.479Z,95351.75
2022-07-28T10:21:34.713Z,95350.84
2022-07-28T10:24:07.321Z,95338.22
2022-07-28T10:26:39.239Z,95344.19
2022-07-28T10:29:08.775Z,95338.28
2022-07-28T10:31:44.257Z,95341.59
2022-07-28T10:34:24.403Z,95337.91
2022-07-28T10:36:55.283Z,95334.50
2022-07-28T10:39:29.695Z,95327.97
2022-07-28T10:41:57.551Z,95334.28
2022-07-28T10:44:26.281Z,95337.81
2022-07-28T10:46:55.595Z,95340.19
2022-07-28T10:49:27.582Z,95329.25
2022-07-28T10:52:06.291Z,95330.75
2022-07-28T10:54:46.526Z,95335.03
2022-07-28T10:57:17.285Z,95332.66
2022-07-28T11:00:12.209Z,95342.59
2022-07-28T11:02:52.459Z,95325.03
2022-07-28T11:05:32.359Z,95326.13
2022-07-28T11:08:02.105Z,95326.44
2022-07-28T11:10:44.190Z,95317.19
2022-07-28T11:13:28.882Z,95322.13
2022-07-28T11:15:57.654Z,95314.41
2022-07-28T11:18:25.758Z,95312.22
2022-07-28T11:21:09.979Z,95315.84
2022-07-28T11:23:47.880Z,95306.00
2022-07-28T11:26:35.351Z,95315.09
2022-07-28T11:29:19.685Z,95299.75
2022-07-28T11:32:00.531Z,95302.84
2022-07-28T11:34:48.586Z,95311.16
2022-07-28T11:37:16.951Z,95309.25
2022-07-28T11:39:45.374Z,95299.63
2022-07-28T11:42:28.975Z,95310.50
2022-07-28T11:44:57.505Z,95309.09
2022-07-28T11:47:28.469Z,95309.91
2022-07-28T11:50:12.758Z,95309.44
2022-07-28T11:52:41.348Z,95308.28
2022-07-28T11:55:09.520Z,95307.31
2022-07-28T11:57:44.004Z,95299.34
2022-07-28T12:00:13.003Z,95303.66
2022-07-28T12:02:41.819Z,95292.06
2022-07-28T12:05:13.472Z,95294.63
2022-07-28T12:07:44.707Z,95296.25
2022-07-28T12:10:53.191Z,95291.28
2022-07-28T12:13:26.866Z,95287.44
2022-07-28T12:15:54.915Z,95296.72
2022-07-28T12:18:24.807Z,95293.63
2022-07-28T12:20:54.719Z,95288.38
2022-07-28T12:23:39.145Z,95280.38
2022-07-28T12:26:14.181Z,95280.09
2022-07-28T12:28:50.395Z,95273.00
2022-07-28T12:31:18.100Z,95280.72
2022-07-28T12:33:45.836Z,95273.03
2022-07-28T12:36:14.746Z,95269.34
2022-07-28T12:38:42.423Z,95272.84
2022-07-28T12:41:15.528Z,95268.88
2022-07-28T12:43:52.144Z,95271.41
2022-07-28T12:46:25.151Z,95276.19
2022-07-28T12:48:57.691Z,95281.56
2022-07-28T12:51:36.860Z,95272.91
2022-07-28T12:54:06.141Z,95270.50
2022-07-28T12:56:45.910Z,95269.41
2022-07-28T12:59:15.488Z,95266.22
2022-07-28T13:01:51.586Z,95273.25
2022-07-28T13:04:42.809Z,95273.53
2022-07-28T13:07:13.213Z,95266.47
2022-07-28T13:09:47.043Z,95269.47
2022-07-28T13:12:18.677Z,95271.13
2022-07-28T13:14:51.808Z,95275.53
2022-07-28T13:17:20.938Z,95266.44
2022-07-28T13:19:49.291Z,95263.72
2022-07-28T13:22:26.598Z,95254.59
2022-07-28T13:24:54.675Z,95259.25
2022-07-28T13:27:22.360Z,95257.63
2022-07-28T13:29:52.661Z,95272.38
2022-07-28T13:32:20.524Z,95261.97
2022-07-28T13:34:48.895Z,95261.81
2022-07-28T13:37:16.548Z,95252.34
2022-07-28T13:39:44.766Z,95246.28
2022-07-28T13:42:13.152Z,95255.56
2022-07-28T13:44:41.358Z,95252.84
2022-07-28T13:47:10.344Z,95251.38
2022-07-28T13:49:39.062Z,95243.06
2022-07-28T13:52:13.170Z,95255.06
2022-07-28T13:54:41.628Z,95247.06
2022-07-28T13:57:09.371Z,95231.84
2022-07-28T13:59:38.438Z,95240.97
2022-07-28T14:02:15.019Z,95238.75
2022-07-28T14:04:46.013Z,95232.78
2022-07-28T14:07:20.659Z,95236.88
2022-07-28T14:09:50.429Z,95227.78
2022-07-28T14:12:18.158Z,95234.16
2022-07-28T14:14:48.498Z,95230.31
2022-07-28T14:20:07.058Z,95226.16
2022-07-28T14:22:34.733Z,95234.34
2022-07-28T14:25:02.509Z,95228.78
2022-07-28T14:27:30.299Z,95228.47
2022-07-28T14:29:58.367Z,95224.16
2022-07-28T14:32:25.989Z,95221.78
2022-07-28T14:34:53.640Z,95215.00
2022-07-28T14:37:23.725Z,95216.47
2022-07-28T14:39:51.601Z,95213.50
2022-07-28T14:42:19.284Z,95212.06
2022-07-28T14:44:47.454Z,95209.94
2022-07-28T14:47:15.570Z,95214.28
2022-07-28T14:49:58.339Z,95210.56
2022-07-28T14:52:29.415Z,95209.25
2022-07-28T14:54:58.467Z,95209.09
2022-07-28T14:57:50.349Z,95207.81
2022-07-28T15:00:16.975Z,95211.19
2022-07-28T15:02:45.681Z,95210.88
2022-07-28T15:05:14.294Z,95205.09
2022-07-28T15:07:43.340Z,95210.22
2022-07-28T15:10:12.252Z,95206.22
2022-07-28T15:12:40.487Z,95210.69
2022-07-28T15:15:09.478Z,95206.53
2022-07-28T15:17:37.636Z,95206.63
2022-07-28T15:20:07.099Z,95200.00
2022-07-28T15:22:35.448Z,95199.22
2022-07-28T15:25:05.585Z,95202.91
2022-07-28T15:27:34.008Z,95199.59
2022-07-28T15:30:02.511Z,95201.16
2022-07-28T15:32:30.577Z,95195.81
2022-07-28T15:34:58.292Z,95191.31
2022-07-28T15:37:28.184Z,95189.72
2022-07-28T15:39:55.990Z,95187.25
2022-07-28T15:42:25.084Z,95191.38
2022-07-28T15:44:53.160Z,95187.78
2022-07-28T15:47:22.110Z,95179.31
2022-07-28T15:49:49.999Z,95175.78
2022-07-28T15:52:17.993Z,95174.94
2022-07-28T15:54:45.597Z,95173.06
2022-07-28T15:57:14.263Z,95175.66
2022-07-28T15:59:50.185Z,95176.47
2022-07-28T16:02:19.594Z,95172.47
2022-07-28T16:04:53.647Z,95156.84
2022-07-28T16:07:23.509Z,95162.97
2022-07-28T16:09:52.089Z,95159.09
2022-07-28T16:12:20.649Z,95157.97
2022-07-28T16:14:49.685Z,95154.22
2022-07-28T16:17:18.308Z,95163.00
2022-07-28T16:19:49.613Z,95164.38
2022-07-28T16:22:18.671Z,95157.63
2022-07-28T16:24:46.619Z,95168.91
2022-07-28T16:27:14.627Z,95170.84
2022-07-28T16:29:42.300Z,95176.94
2022-07-28T16:32:11.378Z,95185.19
2022-07-28T16:34:39.227Z,95182.63
2022-07-28T16:37:06.896Z,95181.97
2022-07-28T16:39:35.392Z,95179.88
2022-07-28T16:42:03.460Z,95180.19
2022-07-28T16:44:31.206Z,95176.78
2022-07-28T16:46:59.105Z,95174.47
2022-07-28T16:49:28.182Z,95179.06
2022-07-28T16:51:56.037Z,95192.13
2022-07-28T16:54:24.159Z,95195.16
2022-07-28T16:56:54.831Z,95196.66
2022-07-28T16:59:22.757Z,95205.00
2022-07-28T17:01:52.080Z,95211.19
2022-07-28T17:04:21.155Z,95216.22
2022-07-28T17:06:51.319Z,95211.59
2022-07-28T17:09:18.988Z,95208.03
2022-07-28T17:11:46.622Z,95213.03
2022-07-28T17:14:16.909Z,95221.50
2022-07-28T17:16:45.102Z,95225.81
2022-07-28T17:19:12.964Z,95227.22
2022-07-28T17:21:40.901Z,95229.16
2022-07-28T17:24:12.169Z,95227.97
2022-07-28T17:29:27.985Z,95242.50
2022-07-28T17:31:55.657Z,95244.31
2022-07-28T17:34:23.895Z,95242.81
2022-07-28T17:36:52.539Z,95248.19
2022-07-28T17:39:21.582Z,95245.47
2022-07-28T17:41:49.668Z,95250.91
2022-07-28T17:44:17.874Z,95241.69
2022-07-28T17:46:46.590Z,95240.19
2022-07-28T17:49:14.303Z,95230.63
2022-07-28T17:51:43.021Z,95229.91
2022-07-28T17:54:13.622Z,95237.63
2022-07-28T17:56:43.081Z,95241.25
2022-07-28T17:59:11.111Z,95232.22
2022-07-28T18:01:43.679Z,95236.22
2022-07-28T18:04:13.563Z,95237.41
2022-07-28T18:06:41.562Z,95238.03
2022-07-28T18:09:10.863Z,95242.59
2022-07-28T18:11:56.764Z,95238.06
2022-07-28T18:14:30.478Z,95230.09
2022-07-28T18:16:59.231Z,95236.72
2022-07-28T18:19:27.447Z,95226.63
2022-07-28T18:21:55.659Z,95228.22
2022-07-28T18:24:23.518Z,95230.84
2022-07-28T18:26:51.655Z,95227.31
2022-07-28T18:29:20.386Z,95225.78
2022-07-28T18:31:52.059Z,95212.25
2022-07-28T18:34:23.126Z,95214.03
2022-07-28T18:36:52.540Z,95213.13
2022-07-28T18:39:20.181Z,95205.25
2022-07-28T18:41:48.141Z,95209.63
2022-07-28T18:44:17.891Z,95205.38
2022-07-28T18:46:46.220Z,95207.13
2022-07-28T18:49:16.181Z,95198.81
2022-07-28T18:51:45.538Z,95200.56
2022-07-28T18:54:16.279Z,95199.91
2022-07-28T18:56:46.596Z,95202.00
2022-07-28T18:59:15.051Z,95204.53
2022-07-28T19:01:42.791Z,95214.06
2022-07-28T19:04:11.657Z,95218.41
2022-07-28T19:06:40.735Z,95228.50
2022-07-28T19:09:08.426Z,95229.16
2022-07-28T19:11:36.431Z,95230.75
2022-07-28T19:14:04.404Z,95243.25
2022-07-28T19:16:33.198Z,95237.38
2022-07-28T19:19:00.863Z,95241.50
2022-07-28T19:21:28.467Z,95235.53
2022-07-28T19:23:57.638Z,95240.41
2022-07-28T19:26:25.254Z,95243.97
2022-07-28T19:28:53.591Z,95241.81
2022-07-28T19:31:21.509Z,95248.88
2022-07-28T19:33:49.709Z,95242.69
2022-07-28T19:36:17.441Z,95247.84
2022-07-28T19:38:45.440Z,95251.41
2022-07-28T19:41:14.477Z,95254.41
2022-07-28T19:43:42.399Z,95262.25
2022-07-28T19:46:10.203Z,95269.31
2022-07-28T19:48:38.787Z,95267.72
2022-07-28T19:51:06.781Z,95275.59
2022-07-28T19:53:35.816Z,95276.66
2022-07-28T19:56:06.021Z,95269.91
2022-07-28T19:58:38.395Z,95281.78
2022-07-28T20:01:06.975Z,95285.84
2022-07-28T20:04:02.916Z,95275.59
2022-07-28T20:06:24.914Z,95276.13
2022-07-28T20:08:53.814Z,95273.41
2022-07-28T20:11:21.487Z,95286.91
2022-07-28T20:13:50.882Z,95289.59
2022-07-28T20:16:18.830Z,95304.66
2022-07-28T20:18:46.862Z,95302.78
2022-07-28T20:21:14.534Z,95300.84
2022-07-28T20:23:42.285Z,95303.28
2022-07-28T20:26:10.423Z,95305.41
2022-07-28T20:28:38.771Z,95311.59
2022-07-28T20:31:12.389Z,95309.94
2022-07-28T20:33:42.587Z,95311.13
2022-07-28T20:36:10.882Z,95313.91
2022-07-28T20:38:39.473Z,95306.94
2022-07-28T20:41:08.071Z,95316.41
2022-07-28T20:43:37.003Z,95322.63
2022-07-28T20:46:05.227Z,95338.84
2022-07-28T20:48:34.968Z,95351.50
2022-07-28T20:51:02.991Z,95351.75
2022-07-28T20:53:30.656Z,95351.22
2022-07-28T20:55:58.602Z,95368.50
2022-07-28T20:58:26.264Z,95372.25
2022-07-28T21:00:54.841Z,95383.56
2022-07-28T21:03:22.481Z,95390.03
2022-07-28T21:05:51.879Z,95397.56
2022-07-28T21:08:19.877Z,95406.19
2022-07-28T21:10:49.253Z,95420.72
2022-07-28T21:13:16.932Z,95442.75
2022-07-28T21:15:44.979Z,95466.84
2022-07-28T21:18:12.660Z,95478.38
2022-07-28T21:20:41.609Z,95496.63
2022-07-28T21:23:10.669Z,95511.03
2022-07-28T21:25:38.305Z,95509.88
2022-07-28T21:28:24.683Z,95530.56
2022-07-28T21:30:52.614Z,95527.34
2022-07-28T21:33:22.657Z,95550.56
2022-07-28T21:35:51.446Z,95524.50
2022-07-28T21:38:21.756Z,95520.13
2022-07-28T21:40:50.558Z,95526.09
2022-07-28T21:43:18.329Z,95544.44
2022-07-28T21:45:47.008Z,95558.16
2022-07-28T21:48:14.765Z,95552.59
2022-07-28T21:50:42.385Z,95562.00
2022-07-28T21:53:14.003Z,95568.31
2022-07-28T21:55:48.842Z,95566.31
2022-07-28T21:58:17.036Z,95568.81
2022-07-28T22:00:45.239Z,95575.66
2022-07-28T22:03:12.930Z,95569.34
2022-07-28T22:05:42.020Z,95567.56
2022-07-28T22:08:09.711Z,95572.53
2022-07-28T22:10:38.067Z,95582.19
2022-07-28T22:13:07.085Z,95584.06
2022-07-28T22:15:34.833Z,95570.88
2022-07-28T22:18:02.836Z,95570.13
2022-07-28T22:20:30.726Z,95573.06
2022-07-28T22:22:58.597Z,95564.25
2022-07-28T22:25:26.205Z,95562.59
2022-07-28T22:27:54.707Z,95571.84
2022-07-28T22:30:23.869Z,95577.03
2022-07-28T22:32:51.520Z,95571.66
2022-07-28T22:35:19.168Z,95576.84
2022-07-28T22:37:47.473Z,95559.78
2022-07-28T22:40:16.070Z,95556.75
2022-07-28T22:42:45.250Z,95557.88
2022-07-28T22:45:13.606Z,95560.00
2022-07-28T22:47:43.479Z,95566.69
2022-07-28T22:50:11.462Z,95558.13
2022-07-28T22:52:40.236Z,95555.81
2022-07-28T22:55:08.916Z,95550.28
2022-07-28T22:57:37.529Z,95551.34
2022-07-28T23:00:07.687Z,95561.41
2022-07-28T23:02:35.808Z,95551.13
2022-07-28T23:05:06.522Z,95549.09
2022-07-28T23:07:53.117Z,95552.94
2022-07-28T23:10:22.811Z,95561.63
2022-07-28T23:12:51.136Z,95559.00
2022-07-28T23:15:18.841Z,95555.94
2022-07-28T23:17:46.706Z,95548.03
2022-07-28T23:20:16.855Z,95535.22
2022-07-28T23:22:44.888Z,95531.00
2022-07-28T23:25:13.832Z,95530.69
2022-07-28T23:27:42.204Z,95526.63
2022-07-28T23:30:10.480Z,95527.75
2022-07-28T23:32:38.293Z,95531.78
2022-07-28T23:35:06.792Z,95525.72
2022-07-28T23:37:35.803Z,95525.22
2022-07-28T23:40:03.577Z,95532.78
2022-07-28T23:42:31.525Z,95530.03
2022-07-28T23:44:59.183Z,95535.53
2022-07-28T23:47:27.446Z,95537.50
2022-07-28T23:49:55.396Z,95528.72
2022-07-28T23:52:23.451Z,95524.16
2022-07-28T23:54:52.410Z,95520.44
2022-07-28T23:57:20.504Z,95510.88
2022-07-28T23:59:48.172Z,95507.63
